Pismo Beach, CA

8:52 AM PST on December 27, 2014 (GMT -0800)
Vandenberg AFB | Change Station
CLOSE
Current Station
Airport
Location: Vandenberg AFB,
Elevation: 367 ft
Nearby Weather Stations
Active Advisory: Frost Advisory Active Notice: Public Information Statement

Elev 367 ft 34.74 °N, 120.58 °W | Updated 57 minutes ago

Clear
Clear
40 °F
Feels Like 34 °F
N
9
Wind Variable Wind from ESE

Today
High -- | Low -- °F
--% Chance of Precip.
Yesterday
High -- | Low -- °F
Precip. -- in
7:09 AM 4:57 PM
Waxing Crescent, 38% visible
Pressure 30.28 in
Visibility 10.0 miles
Clouds Clear
Windchill 34 °F
Dew Point 29 °F
Humidity 65%
Rainfall 0.00 in
Snow Depth Not available.
UV 0 out of 12
Pollen 5.60 out of 12
Air Quality Not available.
Flu Activity Not available.
METAR KVBG 271555Z AUTO 12008KT 10SM CLR 04/M02 A3030 RMK AO2 SLP254 T00441017 TSNO $

More Conditions Fewer Conditions

Pressure 30.28 in
Visibility 10.0 miles
Clouds Clear
Windchill 34 °F
Dew Point 29 °F
Humidity 65%
Rainfall 0.00 in
Snow Depth Not available.
UV 0 out of 12
Pollen 5.60 out of 12
Air Quality Not available.
Flu Activity Not available.
METAR KVBG 271555Z AUTO 12008KT 10SM CLR 04/M02 A3030 RMK AO2 SLP254 T00441017 TSNO $

More Conditions Fewer Conditions

10-Day Weather Forecast

Almanac

Astronomy

Dec. 27, 2014 Rise Set
Actual Time
Civil Twilight
Nautical Twilight
Astronomical Twilight
Moon
Length of Visible Light
Length of Day
Tomorrow will be .
, % of the Moon is Illuminated

Today's Extremes

State Highs State Lows

Community

WunderPhotos

Upload Photos

1,780,958 photos uploaded!

WunderBlogs® & News

Nearby

Air Quality

  Air Quality AQ Index Pollutant
Not available.

Snow Depth

Station Depth Elevation

Earthquake Activity

City Distance Mag. Time & Date
Minimum magnitude displayed is 2.5.

Coastal Water Temperatures

Place Temperature

Nearby Weather Stations